sensor_id;sensor_type;location;lat;lon;timestamp;temperature;humidity
22161;DHT22;49035;48.812;11.762;2022-08-01T00:00:38;15.60;99.90
22161;DHT22;49035;48.812;11.762;2022-08-01T00:03:04;15.60;99.90
22161;DHT22;49035;48.812;11.762;2022-08-01T00:05:29;15.50;99.90
22161;DHT22;49035;48.812;11.762;2022-08-01T00:07:55;15.40;99.90
22161;DHT22;49035;48.812;11.762;2022-08-01T00:10:21;15.30;99.90
22161;DHT22;49035;48.812;11.762;2022-08-01T00:12:46;15.30;99.90
22161;DHT22;49035;48.812;11.762;2022-08-01T00:15:15;15.10;99.90
22161;DHT22;49035;48.812;11.762;2022-08-01T00:17:41;15.10;99.90
22161;DHT22;49035;48.812;11.762;2022-08-01T00:20:09;15.00;99.90
22161;DHT22;49035;48.812;11.762;2022-08-01T00:22:35;14.90;99.90
22161;DHT22;49035;48.812;11.762;2022-08-01T00:25:02;14.80;99.90
22161;DHT22;49035;48.812;11.762;2022-08-01T00:27:28;14.80;99.90
22161;DHT22;49035;48.812;11.762;2022-08-01T00:29:53;14.70;99.90
22161;DHT22;49035;48.812;11.762;2022-08-01T00:32:19;14.60;99.90
22161;DHT22;49035;48.812;11.762;2022-08-01T00:34:45;14.50;99.90
22161;DHT22;49035;48.812;11.762;2022-08-01T00:37:10;14.40;99.90
22161;DHT22;49035;48.812;11.762;2022-08-01T00:39:36;14.30;99.90
22161;DHT22;49035;48.812;11.762;2022-08-01T00:42:09;14.30;99.90
22161;DHT22;49035;48.812;11.762;2022-08-01T00:44:35;14.20;99.90
22161;DHT22;49035;48.812;11.762;2022-08-01T00:47:02;14.20;99.90
22161;DHT22;49035;48.812;11.762;2022-08-01T00:49:28;14.10;99.90
22161;DHT22;49035;48.812;11.762;2022-08-01T00:51:54;14.20;99.90
22161;DHT22;49035;48.812;11.762;2022-08-01T00:54:20;14.10;99.90
22161;DHT22;49035;48.812;11.762;2022-08-01T00:56:46;14.10;99.90
22161;DHT22;49035;48.812;11.762;2022-08-01T00:59:14;14.10;99.90
22161;DHT22;49035;48.812;11.762;2022-08-01T01:01:42;14.00;99.90
22161;DHT22;49035;48.812;11.762;2022-08-01T01:04:07;14.00;99.90
22161;DHT22;49035;48.812;11.762;2022-08-01T01:09:58;13.80;99.90
22161;DHT22;49035;48.812;11.762;2022-08-01T01:12:47;13.80;99.90
22161;DHT22;49035;48.812;11.762;2022-08-01T01:18:12;13.90;99.90
22161;DHT22;49035;48.812;11.762;2022-08-01T01:20:41;13.90;99.90
22161;DHT22;49035;48.812;11.762;2022-08-01T01:29:04;14.10;99.90
22161;DHT22;49035;48.812;11.762;2022-08-01T01:31:47;14.10;99.90
22161;DHT22;49035;48.812;11.762;2022-08-01T01:34:15;14.10;99.90
22161;DHT22;49035;48.812;11.762;2022-08-01T01:36:44;14.20;99.90
22161;DHT22;49035;48.812;11.762;2022-08-01T01:39:11;14.30;99.90
22161;DHT22;49035;48.812;11.762;2022-08-01T01:41:40;14.50;99.90
22161;DHT22;49035;48.812;11.762;2022-08-01T01:44:08;14.50;99.90
22161;DHT22;49035;48.812;11.762;2022-08-01T01:46:35;14.80;99.90
22161;DHT22;49035;48.812;11.762;2022-08-01T01:49:02;14.80;99.90
22161;DHT22;49035;48.812;11.762;2022-08-01T01:51:29;14.90;99.90
22161;DHT22;49035;48.812;11.762;2022-08-01T01:53:56;15.00;99.90
22161;DHT22;49035;48.812;11.762;2022-08-01T01:56:22;15.20;99.90
22161;DHT22;49035;48.812;11.762;2022-08-01T01:58:52;15.30;99.90
22161;DHT22;49035;48.812;11.762;2022-08-01T02:01:19;15.30;99.90
22161;DHT22;49035;48.812;11.762;2022-08-01T02:03:48;15.50;99.90
22161;DHT22;49035;48.812;11.762;2022-08-01T02:06:15;15.50;99.90
22161;DHT22;49035;48.812;11.762;2022-08-01T02:08:42;15.60;99.90
22161;DHT22;49035;48.812;11.762;2022-08-01T02:11:09;15.70;99.90
22161;DHT22;49035;48.812;11.762;2022-08-01T02:13:55;15.80;99.90
22161;DHT22;49035;48.812;11.762;2022-08-01T02:16:26;15.80;99.90
22161;DHT22;49035;48.812;11.762;2022-08-01T02:18:52;15.80;99.90
22161;DHT22;49035;48.812;11.762;2022-08-01T02:21:28;15.90;99.90
22161;DHT22;49035;48.812;11.762;2022-08-01T02:24:01;16.00;99.90
22161;DHT22;49035;48.812;11.762;2022-08-01T02:26:28;16.00;99.90
22161;DHT22;49035;48.812;11.762;2022-08-01T02:28:57;16.00;99.90
22161;DHT22;49035;48.812;11.762;2022-08-01T02:31:25;16.00;99.90
22161;DHT22;49035;48.812;11.762;2022-08-01T02:33:59;16.00;99.90
22161;DHT22;49035;48.812;11.762;2022-08-01T02:36:28;16.00;99.90
22161;DHT22;49035;48.812;11.762;2022-08-01T02:38:57;16.00;99.90
22161;DHT22;49035;48.812;11.762;2022-08-01T02:41:26;15.90;99.90
22161;DHT22;49035;48.812;11.762;2022-08-01T02:43:56;15.80;99.90
22161;DHT22;49035;48.812;11.762;2022-08-01T02:46:28;15.70;99.90
22161;DHT22;49035;48.812;11.762;2022-08-01T02:48:56;15.80;99.90
22161;DHT22;49035;48.812;11.762;2022-08-01T02:51:25;15.70;99.90
22161;DHT22;49035;48.812;11.762;2022-08-01T02:53:52;15.60;99.90
22161;DHT22;49035;48.812;11.762;2022-08-01T02:56:19;15.60;99.90
22161;DHT22;49035;48.812;11.762;2022-08-01T02:58:47;15.60;99.90
22161;DHT22;49035;48.812;11.762;2022-08-01T03:01:15;15.60;99.90
22161;DHT22;49035;48.812;11.762;2022-08-01T03:03:42;15.60;99.90
22161;DHT22;49035;48.812;11.762;2022-08-01T03:06:08;15.70;99.90
22161;DHT22;49035;48.812;11.762;2022-08-01T03:08:36;15.60;99.90
22161;DHT22;49035;48.812;11.762;2022-08-01T03:11:02;15.50;99.90
22161;DHT22;49035;48.812;11.762;2022-08-01T03:13:29;15.60;99.90
22161;DHT22;49035;48.812;11.762;2022-08-01T03:15:56;15.50;99.90
22161;DHT22;49035;48.812;11.762;2022-08-01T03:18:25;15.40;99.90
22161;DHT22;49035;48.812;11.762;2022-08-01T03:20:54;15.40;99.90
22161;DHT22;49035;48.812;11.762;2022-08-01T03:23:21;15.30;99.90
22161;DHT22;49035;48.812;11.762;2022-08-01T03:25:49;15.10;99.90
22161;DHT22;49035;48.812;11.762;2022-08-01T03:28:16;15.10;99.90
22161;DHT22;49035;48.812;11.762;2022-08-01T03:30:44;15.00;99.90
22161;DHT22;49035;48.812;11.762;2022-08-01T03:33:10;14.80;99.90
22161;DHT22;49035;48.812;11.762;2022-08-01T03:35:40;14.80;99.90
22161;DHT22;49035;48.812;11.762;2022-08-01T03:38:08;14.80;99.90
22161;DHT22;49035;48.812;11.762;2022-08-01T03:40:45;14.80;99.90
22161;DHT22;49035;48.812;11.762;2022-08-01T03:43:20;14.90;99.90
22161;DHT22;49035;48.812;11.762;2022-08-01T03:45:50;15.00;99.90
22161;DHT22;49035;48.812;11.762;2022-08-01T03:48:18;15.00;99.90
22161;DHT22;49035;48.812;11.762;2022-08-01T03:50:48;15.10;99.90
22161;DHT22;49035;48.812;11.762;2022-08-01T03:53:16;15.20;99.90
22161;DHT22;49035;48.812;11.762;2022-08-01T03:55:44;15.20;99.90
22161;DHT22;49035;48.812;11.762;2022-08-01T03:58:10;15.20;99.90
22161;DHT22;49035;48.812;11.762;2022-08-01T04:00:38;15.30;99.90
22161;DHT22;49035;48.812;11.762;2022-08-01T04:03:08;15.30;99.90
22161;DHT22;49035;48.812;11.762;2022-08-01T04:05:34;15.30;99.90
22161;DHT22;49035;48.812;11.762;2022-08-01T04:08:01;15.30;99.90
22161;DHT22;49035;48.812;11.762;2022-08-01T04:10:28;15.30;99.90
22161;DHT22;49035;48.812;11.762;2022-08-01T04:12:54;15.30;99.90
22161;DHT22;49035;48.812;11.762;2022-08-01T04:15:20;15.40;99.90
22161;DHT22;49035;48.812;11.762;2022-08-01T04:17:47;15.40;99.90
22161;DHT22;49035;48.812;11.762;2022-08-01T04:20:12;15.60;99.90
22161;DHT22;49035;48.812;11.762;2022-08-01T04:22:39;15.70;99.90
22161;DHT22;49035;48.812;11.762;2022-08-01T04:25:10;15.90;99.90
22161;DHT22;49035;48.812;11.762;2022-08-01T04:27:38;16.10;99.90
22161;DHT22;49035;48.812;11.762;2022-08-01T04:30:06;16.30;99.90
22161;DHT22;49035;48.812;11.762;2022-08-01T04:32:35;16.50;99.90
22161;DHT22;49035;48.812;11.762;2022-08-01T04:35:06;16.60;99.90
22161;DHT22;49035;48.812;11.762;2022-08-01T04:37:33;16.80;99.90
22161;DHT22;49035;48.812;11.762;2022-08-01T04:40:04;17.00;99.90
22161;DHT22;49035;48.812;11.762;2022-08-01T04:42:32;17.10;99.90
22161;DHT22;49035;48.812;11.762;2022-08-01T04:44:58;17.30;99.90
22161;DHT22;49035;48.812;11.762;2022-08-01T04:47:25;17.40;99.90
22161;DHT22;49035;48.812;11.762;2022-08-01T04:49:51;17.50;99.90
22161;DHT22;49035;48.812;11.762;2022-08-01T04:52:17;17.60;99.90
22161;DHT22;49035;48.812;11.762;2022-08-01T04:54:43;17.70;99.90
22161;DHT22;49035;48.812;11.762;2022-08-01T04:57:09;17.90;99.90
22161;DHT22;49035;48.812;11.762;2022-08-01T04:59:36;17.90;99.90
22161;DHT22;49035;48.812;11.762;2022-08-01T05:02:17;17.90;99.90
22161;DHT22;49035;48.812;11.762;2022-08-01T05:04:44;18.00;99.90
22161;DHT22;49035;48.812;11.762;2022-08-01T05:07:11;18.10;99.90
22161;DHT22;49035;48.812;11.762;2022-08-01T05:09:38;18.10;99.90
22161;DHT22;49035;48.812;11.762;2022-08-01T05:12:05;18.20;99.90
22161;DHT22;49035;48.812;11.762;2022-08-01T05:14:32;18.20;99.90
22161;DHT22;49035;48.812;11.762;2022-08-01T05:16:59;18.40;99.90
22161;DHT22;49035;48.812;11.762;2022-08-01T05:19:25;18.70;99.90
22161;DHT22;49035;48.812;11.762;2022-08-01T05:21:50;19.20;99.90
22161;DHT22;49035;48.812;11.762;2022-08-01T05:24:17;19.70;99.90
22161;DHT22;49035;48.812;11.762;2022-08-01T05:26:42;20.50;99.90
22161;DHT22;49035;48.812;11.762;2022-08-01T05:29:08;21.60;99.90
22161;DHT22;49035;48.812;11.762;2022-08-01T05:31:34;22.80;99.90
22161;DHT22;49035;48.812;11.762;2022-08-01T05:34:01;23.80;96.90
22161;DHT22;49035;48.812;11.762;2022-08-01T05:36:27;24.40;94.70
22161;DHT22;49035;48.812;11.762;2022-08-01T05:38:53;25.20;90.60
22161;DHT22;49035;48.812;11.762;2022-08-01T05:41:18;25.70;86.70
22161;DHT22;49035;48.812;11.762;2022-08-01T05:43:44;25.80;81.60
22161;DHT22;49035;48.812;11.762;2022-08-01T05:46:10;25.20;81.20
22161;DHT22;49035;48.812;11.762;2022-08-01T05:48:35;24.70;84.70
22161;DHT22;49035;48.812;11.762;2022-08-01T05:51:01;25.10;84.90
22161;DHT22;49035;48.812;11.762;2022-08-01T05:53:27;26.00;83.60
22161;DHT22;49035;48.812;11.762;2022-08-01T05:55:53;26.90;80.30
22161;DHT22;49035;48.812;11.762;2022-08-01T05:58:18;27.90;74.70
22161;DHT22;49035;48.812;11.762;2022-08-01T06:00:44;28.70;69.80
22161;DHT22;49035;48.812;11.762;2022-08-01T06:03:09;28.90;68.60
22161;DHT22;49035;48.812;11.762;2022-08-01T06:05:36;29.20;65.30
22161;DHT22;49035;48.812;11.762;2022-08-01T06:08:03;29.10;65.00
22161;DHT22;49035;48.812;11.762;2022-08-01T06:10:28;29.50;64.80
22161;DHT22;49035;48.812;11.762;2022-08-01T06:12:54;30.10;63.20
22161;DHT22;49035;48.812;11.762;2022-08-01T06:15:20;30.80;60.20
22161;DHT22;49035;48.812;11.762;2022-08-01T06:17:46;31.10;59.20
22161;DHT22;49035;48.812;11.762;2022-08-01T06:20:12;31.80;57.40
22161;DHT22;49035;48.812;11.762;2022-08-01T06:22:37;32.30;55.80
22161;DHT22;49035;48.812;11.762;2022-08-01T06:25:03;32.10;54.90
22161;DHT22;49035;48.812;11.762;2022-08-01T06:27:29;31.40;55.90
22161;DHT22;49035;48.812;11.762;2022-08-01T06:29:55;30.80;56.50
22161;DHT22;49035;48.812;11.762;2022-08-01T06:32:22;30.10;58.20
22161;DHT22;49035;48.812;11.762;2022-08-01T06:34:48;29.40;62.70
22161;DHT22;49035;48.812;11.762;2022-08-01T06:37:14;29.60;63.60
22161;DHT22;49035;48.812;11.762;2022-08-01T06:39:40;30.00;60.90
22161;DHT22;49035;48.812;11.762;2022-08-01T06:42:05;30.40;61.60
22161;DHT22;49035;48.812;11.762;2022-08-01T06:44:31;31.10;58.80
22161;DHT22;49035;48.812;11.762;2022-08-01T06:46:56;31.10;57.90
22161;DHT22;49035;48.812;11.762;2022-08-01T06:49:24;30.90;56.00
22161;DHT22;49035;48.812;11.762;2022-08-01T06:51:50;29.10;59.00
22161;DHT22;49035;48.812;11.762;2022-08-01T06:54:15;27.80;63.60
22161;DHT22;49035;48.812;11.762;2022-08-01T06:56:41;26.90;66.00
22161;DHT22;49035;48.812;11.762;2022-08-01T06:59:07;26.10;70.30
22161;DHT22;49035;48.812;11.762;2022-08-01T07:01:33;25.70;71.60
22161;DHT22;49035;48.812;11.762;2022-08-01T07:03:58;25.60;72.10
22161;DHT22;49035;48.812;11.762;2022-08-01T07:06:25;25.60;74.00
22161;DHT22;49035;48.812;11.762;2022-08-01T07:08:52;25.70;73.90
22161;DHT22;49035;48.812;11.762;2022-08-01T07:11:18;25.50;73.20
22161;DHT22;49035;48.812;11.762;2022-08-01T07:13:44;25.40;73.30
22161;DHT22;49035;48.812;11.762;2022-08-01T07:16:12;25.60;75.00
22161;DHT22;49035;48.812;11.762;2022-08-01T07:18:37;25.40;75.30
22161;DHT22;49035;48.812;11.762;2022-08-01T07:21:03;25.30;75.90
22161;DHT22;49035;48.812;11.762;2022-08-01T07:23:28;25.30;76.30
22161;DHT22;49035;48.812;11.762;2022-08-01T07:25:54;25.50;76.70
22161;DHT22;49035;48.812;11.762;2022-08-01T07:28:20;26.40;74.50
22161;DHT22;49035;48.812;11.762;2022-08-01T07:30:45;26.90;71.90
22161;DHT22;49035;48.812;11.762;2022-08-01T07:33:11;27.80;71.50
22161;DHT22;49035;48.812;11.762;2022-08-01T07:35:37;28.60;69.00
22161;DHT22;49035;48.812;11.762;2022-08-01T07:38:07;29.30;63.10
22161;DHT22;49035;48.812;11.762;2022-08-01T07:40:32;28.80;61.80
22161;DHT22;49035;48.812;11.762;2022-08-01T07:42:58;28.30;63.00
22161;DHT22;49035;48.812;11.762;2022-08-01T07:45:24;27.70;67.40
22161;DHT22;49035;48.812;11.762;2022-08-01T07:47:49;27.60;68.80
22161;DHT22;49035;48.812;11.762;2022-08-01T07:50:16;27.90;69.40
22161;DHT22;49035;48.812;11.762;2022-08-01T07:52:42;28.10;67.00
22161;DHT22;49035;48.812;11.762;2022-08-01T07:55:08;28.70;64.90
22161;DHT22;49035;48.812;11.762;2022-08-01T07:57:34;29.00;64.70
22161;DHT22;49035;48.812;11.762;2022-08-01T08:00:00;29.20;65.70
22161;DHT22;49035;48.812;11.762;2022-08-01T08:02:26;29.30;63.10
22161;DHT22;49035;48.812;11.762;2022-08-01T08:04:52;28.80;63.20
22161;DHT22;49035;48.812;11.762;2022-08-01T08:07:18;28.40;63.90
22161;DHT22;49035;48.812;11.762;2022-08-01T08:09:43;28.20;69.60
22161;DHT22;49035;48.812;11.762;2022-08-01T08:12:09;28.40;68.70
22161;DHT22;49035;48.812;11.762;2022-08-01T08:14:35;28.70;66.70
22161;DHT22;49035;48.812;11.762;2022-08-01T08:17:00;29.30;66.50
22161;DHT22;49035;48.812;11.762;2022-08-01T08:19:26;29.50;63.20
22161;DHT22;49035;48.812;11.762;2022-08-01T08:21:51;29.70;62.30
22161;DHT22;49035;48.812;11.762;2022-08-01T08:24:17;29.70;61.10
22161;DHT22;49035;48.812;11.762;2022-08-01T08:26:47;29.60;60.30
22161;DHT22;49035;48.812;11.762;2022-08-01T08:29:13;28.80;62.10
22161;DHT22;49035;48.812;11.762;2022-08-01T08:31:39;28.50;63.40
22161;DHT22;49035;48.812;11.762;2022-08-01T08:34:04;28.40;66.70
22161;DHT22;49035;48.812;11.762;2022-08-01T08:36:30;28.80;65.90
22161;DHT22;49035;48.812;11.762;2022-08-01T08:38:56;29.10;62.70
22161;DHT22;49035;48.812;11.762;2022-08-01T08:41:24;29.50;66.20
22161;DHT22;49035;48.812;11.762;2022-08-01T08:43:50;29.60;62.80
22161;DHT22;49035;48.812;11.762;2022-08-01T08:46:16;29.10;65.20
22161;DHT22;49035;48.812;11.762;2022-08-01T08:48:42;28.70;63.90
22161;DHT22;49035;48.812;11.762;2022-08-01T08:51:10;28.70;62.10
22161;DHT22;49035;48.812;11.762;2022-08-01T08:53:39;29.10;62.40
22161;DHT22;49035;48.812;11.762;2022-08-01T08:56:08;29.40;60.40
22161;DHT22;49035;48.812;11.762;2022-08-01T08:58:36;29.00;62.80
22161;DHT22;49035;48.812;11.762;2022-08-01T09:01:06;28.70;63.20
22161;DHT22;49035;48.812;11.762;2022-08-01T09:03:34;28.70;64.40
22161;DHT22;49035;48.812;11.762;2022-08-01T09:06:00;29.30;66.50
22161;DHT22;49035;48.812;11.762;2022-08-01T09:08:25;30.50;61.70
22161;DHT22;49035;48.812;11.762;2022-08-01T09:10:51;30.50;57.10
22161;DHT22;49035;48.812;11.762;2022-08-01T09:13:17;30.80;58.30
22161;DHT22;49035;48.812;11.762;2022-08-01T09:15:47;31.00;55.50
22161;DHT22;49035;48.812;11.762;2022-08-01T09:18:26;29.90;58.60
22161;DHT22;49035;48.812;11.762;2022-08-01T09:21:08;29.30;59.50
22161;DHT22;49035;48.812;11.762;2022-08-01T09:23:55;28.90;63.60
22161;DHT22;49035;48.812;11.762;2022-08-01T09:26:30;29.80;61.20
22161;DHT22;49035;48.812;11.762;2022-08-01T09:28:57;29.90;58.00
22161;DHT22;49035;48.812;11.762;2022-08-01T09:31:26;30.20;58.00
22161;DHT22;49035;48.812;11.762;2022-08-01T09:33:58;29.80;56.90
22161;DHT22;49035;48.812;11.762;2022-08-01T09:36:25;29.30;60.10
22161;DHT22;49035;48.812;11.762;2022-08-01T09:38:53;29.00;60.30
22161;DHT22;49035;48.812;11.762;2022-08-01T09:41:31;28.90;60.70
22161;DHT22;49035;48.812;11.762;2022-08-01T09:43:58;28.00;62.30
22161;DHT22;49035;48.812;11.762;2022-08-01T09:46:24;28.20;63.80
22161;DHT22;49035;48.812;11.762;2022-08-01T09:48:58;28.40;62.40
22161;DHT22;49035;48.812;11.762;2022-08-01T09:51:32;28.40;61.70
22161;DHT22;49035;48.812;11.762;2022-08-01T09:53:59;28.30;63.60
22161;DHT22;49035;48.812;11.762;2022-08-01T09:56:25;28.00;64.60
22161;DHT22;49035;48.812;11.762;2022-08-01T09:58:56;28.20;65.50
22161;DHT22;49035;48.812;11.762;2022-08-01T10:01:22;28.40;60.70
22161;DHT22;49035;48.812;11.762;2022-08-01T10:04:04;28.80;62.70
22161;DHT22;49035;48.812;11.762;2022-08-01T10:06:30;28.90;60.60
22161;DHT22;49035;48.812;11.762;2022-08-01T10:08:56;29.30;61.70
22161;DHT22;49035;48.812;11.762;2022-08-01T10:11:22;28.70;59.90
22161;DHT22;49035;48.812;11.762;2022-08-01T10:13:48;28.20;61.80
22161;DHT22;49035;48.812;11.762;2022-08-01T10:16:14;27.60;63.20
22161;DHT22;49035;48.812;11.762;2022-08-01T10:18:41;27.60;65.10
22161;DHT22;49035;48.812;11.762;2022-08-01T10:21:08;27.80;64.70
22161;DHT22;49035;48.812;11.762;2022-08-01T10:23:36;28.30;66.80
22161;DHT22;49035;48.812;11.762;2022-08-01T10:26:03;28.40;64.80
22161;DHT22;49035;48.812;11.762;2022-08-01T10:28:31;28.40;61.60
22161;DHT22;49035;48.812;11.762;2022-08-01T10:30:57;28.10;64.00
22161;DHT22;49035;48.812;11.762;2022-08-01T10:33:24;28.90;63.40
22161;DHT22;49035;48.812;11.762;2022-08-01T10:35:50;29.90;61.40
22161;DHT22;49035;48.812;11.762;2022-08-01T10:38:16;30.80;60.20
22161;DHT22;49035;48.812;11.762;2022-08-01T10:40:43;31.60;56.60
22161;DHT22;49035;48.812;11.762;2022-08-01T10:43:12;32.20;52.90
22161;DHT22;49035;48.812;11.762;2022-08-01T10:45:41;32.10;54.00
22161;DHT22;49035;48.812;11.762;2022-08-01T10:48:22;32.00;52.40
22161;DHT22;49035;48.812;11.762;2022-08-01T10:50:52;31.60;52.60
22161;DHT22;49035;48.812;11.762;2022-08-01T10:53:21;31.40;53.50
22161;DHT22;49035;48.812;11.762;2022-08-01T10:58:24;29.60;56.80
22161;DHT22;49035;48.812;11.762;2022-08-01T11:09:05;29.40;54.10
22161;DHT22;49035;48.812;11.762;2022-08-01T11:11:31;28.80;55.80
22161;DHT22;49035;48.812;11.762;2022-08-01T11:14:04;28.80;54.20
22161;DHT22;49035;48.812;11.762;2022-08-01T11:16:34;28.50;57.20
22161;DHT22;49035;48.812;11.762;2022-08-01T11:19:02;29.00;54.20
22161;DHT22;49035;48.812;11.762;2022-08-01T11:24:54;28.60;58.20
22161;DHT22;49035;48.812;11.762;2022-08-01T11:27:30;28.70;58.00
22161;DHT22;49035;48.812;11.762;2022-08-01T11:35:10;28.60;56.80
22161;DHT22;49035;48.812;11.762;2022-08-01T11:37:36;28.50;56.50
22161;DHT22;49035;48.812;11.762;2022-08-01T11:40:17;28.20;57.50
22161;DHT22;49035;48.812;11.762;2022-08-01T11:42:43;28.70;57.50
22161;DHT22;49035;48.812;11.762;2022-08-01T11:45:09;28.20;56.40
22161;DHT22;49035;48.812;11.762;2022-08-01T11:47:46;28.20;56.50
22161;DHT22;49035;48.812;11.762;2022-08-01T11:50:45;28.30;56.50
22161;DHT22;49035;48.812;11.762;2022-08-01T11:53:10;28.70;55.90
22161;DHT22;49035;48.812;11.762;2022-08-01T11:55:47;29.20;55.60
22161;DHT22;49035;48.812;11.762;2022-08-01T11:58:14;29.50;54.90
22161;DHT22;49035;48.812;11.762;2022-08-01T12:00:40;29.20;55.20
22161;DHT22;49035;48.812;11.762;2022-08-01T12:03:08;29.40;57.80
22161;DHT22;49035;48.812;11.762;2022-08-01T12:05:35;29.50;56.50
22161;DHT22;49035;48.812;11.762;2022-08-01T12:08:03;30.00;54.60
22161;DHT22;49035;48.812;11.762;2022-08-01T12:10:33;30.50;58.30
22161;DHT22;49035;48.812;11.762;2022-08-01T12:13:03;31.10;51.60
22161;DHT22;49035;48.812;11.762;2022-08-01T12:15:34;31.00;51.10
22161;DHT22;49035;48.812;11.762;2022-08-01T12:18:09;31.00;51.60
22161;DHT22;49035;48.812;11.762;2022-08-01T12:20:37;31.20;51.90
22161;DHT22;49035;48.812;11.762;2022-08-01T12:23:05;31.00;52.10
22161;DHT22;49035;48.812;11.762;2022-08-01T12:25:34;29.90;51.80
22161;DHT22;49035;48.812;11.762;2022-08-01T12:28:04;29.60;52.50
22161;DHT22;49035;48.812;11.762;2022-08-01T12:30:31;29.80;54.20
22161;DHT22;49035;48.812;11.762;2022-08-01T12:33:01;30.50;53.10
22161;DHT22;49035;48.812;11.762;2022-08-01T12:35:29;31.00;53.90
22161;DHT22;49035;48.812;11.762;2022-08-01T12:38:04;31.40;54.50
22161;DHT22;49035;48.812;11.762;2022-08-01T12:40:35;31.10;51.50
22161;DHT22;49035;48.812;11.762;2022-08-01T12:43:03;31.30;52.40
22161;DHT22;49035;48.812;11.762;2022-08-01T12:45:33;31.40;51.40
22161;DHT22;49035;48.812;11.762;2022-08-01T12:47:59;30.50;52.40
22161;DHT22;49035;48.812;11.762;2022-08-01T12:50:30;29.10;53.70
22161;DHT22;49035;48.812;11.762;2022-08-01T12:52:57;28.30;56.30
22161;DHT22;49035;48.812;11.762;2022-08-01T12:55:24;28.10;58.00
22161;DHT22;49035;48.812;11.762;2022-08-01T12:58:04;27.90;57.90
22161;DHT22;49035;48.812;11.762;2022-08-01T13:00:30;28.50;56.50
22161;DHT22;49035;48.812;11.762;2022-08-01T13:03:05;29.20;55.00
22161;DHT22;49035;48.812;11.762;2022-08-01T13:05:50;28.70;55.30
22161;DHT22;49035;48.812;11.762;2022-08-01T13:08:24;28.70;54.80
22161;DHT22;49035;48.812;11.762;2022-08-01T13:11:11;28.90;57.50
22161;DHT22;49035;48.812;11.762;2022-08-01T13:13:51;29.70;53.90
22161;DHT22;49035;48.812;11.762;2022-08-01T13:16:24;29.30;51.80
22161;DHT22;49035;48.812;11.762;2022-08-01T13:18:55;29.10;55.10
22161;DHT22;49035;48.812;11.762;2022-08-01T13:21:27;29.60;55.30
22161;DHT22;49035;48.812;11.762;2022-08-01T13:24:28;29.90;53.70
22161;DHT22;49035;48.812;11.762;2022-08-01T13:27:02;30.60;53.90
22161;DHT22;49035;48.812;11.762;2022-08-01T13:29:39;30.60;53.10
22161;DHT22;49035;48.812;11.762;2022-08-01T13:32:20;30.20;53.70
22161;DHT22;49035;48.812;11.762;2022-08-01T13:34:46;29.50;53.50
22161;DHT22;49035;48.812;11.762;2022-08-01T13:37:12;29.00;53.80
22161;DHT22;49035;48.812;11.762;2022-08-01T13:39:37;28.90;54.30
22161;DHT22;49035;48.812;11.762;2022-08-01T13:42:09;29.30;54.40
22161;DHT22;49035;48.812;11.762;2022-08-01T13:44:35;29.70;55.90
22161;DHT22;49035;48.812;11.762;2022-08-01T13:47:02;30.80;56.20
22161;DHT22;49035;48.812;11.762;2022-08-01T13:49:28;31.10;48.80
22161;DHT22;49035;48.812;11.762;2022-08-01T13:51:54;31.10;49.50
22161;DHT22;49035;48.812;11.762;2022-08-01T13:54:20;30.40;49.90
22161;DHT22;49035;48.812;11.762;2022-08-01T13:56:45;29.20;52.10
22161;DHT22;49035;48.812;11.762;2022-08-01T13:59:11;28.70;52.80
22161;DHT22;49035;48.812;11.762;2022-08-01T14:01:37;29.10;55.10
22161;DHT22;49035;48.812;11.762;2022-08-01T14:04:04;29.40;53.30
22161;DHT22;49035;48.812;11.762;2022-08-01T14:06:31;29.30;51.70
22161;DHT22;49035;48.812;11.762;2022-08-01T14:08:57;29.10;51.80
22161;DHT22;49035;48.812;11.762;2022-08-01T14:11:23;29.10;52.20
22161;DHT22;49035;48.812;11.762;2022-08-01T14:13:48;28.80;52.10
22161;DHT22;49035;48.812;11.762;2022-08-01T14:16:15;28.70;54.60
22161;DHT22;49035;48.812;11.762;2022-08-01T14:18:41;28.60;53.40
22161;DHT22;49035;48.812;11.762;2022-08-01T14:21:07;28.40;53.70
22161;DHT22;49035;48.812;11.762;2022-08-01T14:23:32;29.00;53.90
22161;DHT22;49035;48.812;11.762;2022-08-01T14:25:58;29.70;53.80
22161;DHT22;49035;48.812;11.762;2022-08-01T14:28:23;29.60;52.90
22161;DHT22;49035;48.812;11.762;2022-08-01T14:30:50;30.00;53.10
22161;DHT22;49035;48.812;11.762;2022-08-01T14:33:16;30.60;53.60
22161;DHT22;49035;48.812;11.762;2022-08-01T14:35:41;31.40;52.10
22161;DHT22;49035;48.812;11.762;2022-08-01T14:38:07;31.90;50.80
22161;DHT22;49035;48.812;11.762;2022-08-01T14:40:34;31.90;49.90
22161;DHT22;49035;48.812;11.762;2022-08-01T14:43:00;31.00;48.20
22161;DHT22;49035;48.812;11.762;2022-08-01T14:45:26;30.00;49.60
22161;DHT22;49035;48.812;11.762;2022-08-01T14:47:52;29.50;51.30
22161;DHT22;49035;48.812;11.762;2022-08-01T14:50:18;29.00;52.60
22161;DHT22;49035;48.812;11.762;2022-08-01T14:52:44;28.50;53.40
22161;DHT22;49035;48.812;11.762;2022-08-01T14:55:10;28.40;54.30
22161;DHT22;49035;48.812;11.762;2022-08-01T14:57:37;29.10;52.80
22161;DHT22;49035;48.812;11.762;2022-08-01T15:00:05;29.30;52.10
22161;DHT22;49035;48.812;11.762;2022-08-01T15:02:31;29.10;51.40
22161;DHT22;49035;48.812;11.762;2022-08-01T15:04:57;28.70;52.50
22161;DHT22;49035;48.812;11.762;2022-08-01T15:07:22;28.70;52.50
22161;DHT22;49035;48.812;11.762;2022-08-01T15:09:48;28.50;52.90
22161;DHT22;49035;48.812;11.762;2022-08-01T15:12:14;29.00;51.30
22161;DHT22;49035;48.812;11.762;2022-08-01T15:14:40;29.20;51.00
22161;DHT22;49035;48.812;11.762;2022-08-01T15:17:19;29.70;50.40
22161;DHT22;49035;48.812;11.762;2022-08-01T15:19:47;29.90;49.50
22161;DHT22;49035;48.812;11.762;2022-08-01T15:22:13;29.50;50.40
22161;DHT22;49035;48.812;11.762;2022-08-01T15:24:39;29.20;51.00
22161;DHT22;49035;48.812;11.762;2022-08-01T15:27:05;29.30;51.60
22161;DHT22;49035;48.812;11.762;2022-08-01T15:29:31;29.20;52.50
22161;DHT22;49035;48.812;11.762;2022-08-01T15:31:58;28.80;51.40
22161;DHT22;49035;48.812;11.762;2022-08-01T15:34:24;28.40;53.40
22161;DHT22;49035;48.812;11.762;2022-08-01T15:36:50;28.10;54.00
22161;DHT22;49035;48.812;11.762;2022-08-01T15:39:16;27.90;53.50
22161;DHT22;49035;48.812;11.762;2022-08-01T15:41:42;27.90;53.00
22161;DHT22;49035;48.812;11.762;2022-08-01T15:44:07;27.90;53.10
22161;DHT22;49035;48.812;11.762;2022-08-01T15:46:33;27.70;53.40
22161;DHT22;49035;48.812;11.762;2022-08-01T15:49:06;27.70;53.90
22161;DHT22;49035;48.812;11.762;2022-08-01T15:51:32;27.70;55.60